sensor_id;sensor_type;location;lat;lon;timestamp;P1;durP1;ratioP1;P2;durP2;ratioP2
47429;SDS011;33181;49.246;7.372;2023-08-21T00:01:21;9.80;;;7.10;;
47429;SDS011;33181;49.246;7.372;2023-08-21T00:03:47;9.13;;;7.00;;
47429;SDS011;33181;49.246;7.372;2023-08-21T00:06:13;8.97;;;6.80;;
47429;SDS011;33181;49.246;7.372;2023-08-21T00:08:38;9.20;;;6.90;;
47429;SDS011;33181;49.246;7.372;2023-08-21T00:11:04;10.17;;;6.50;;
47429;SDS011;33181;49.246;7.372;2023-08-21T00:13:30;8.80;;;6.70;;
47429;SDS011;33181;49.246;7.372;2023-08-21T00:15:56;9.97;;;6.63;;
47429;SDS011;33181;49.246;7.372;2023-08-21T00:18:22;9.77;;;6.93;;
47429;SDS011;33181;49.246;7.372;2023-08-21T00:20:47;7.80;;;6.50;;
47429;SDS011;33181;49.246;7.372;2023-08-21T00:23:13;9.97;;;6.33;;
47429;SDS011;33181;49.246;7.372;2023-08-21T00:25:40;10.30;;;7.37;;
47429;SDS011;33181;49.246;7.372;2023-08-21T00:28:11;10.67;;;6.93;;
47429;SDS011;33181;49.246;7.372;2023-08-21T00:30:37;8.63;;;6.47;;
47429;SDS011;33181;49.246;7.372;2023-08-21T00:33:03;9.70;;;7.23;;
47429;SDS011;33181;49.246;7.372;2023-08-21T00:35:29;8.30;;;6.50;;
47429;SDS011;33181;49.246;7.372;2023-08-21T00:37:55;8.57;;;6.60;;
47429;SDS011;33181;49.246;7.372;2023-08-21T00:40:20;10.90;;;6.70;;
47429;SDS011;33181;49.246;7.372;2023-08-21T00:42:46;11.10;;;7.37;;
47429;SDS011;33181;49.246;7.372;2023-08-21T00:45:12;12.20;;;7.90;;
47429;SDS011;33181;49.246;7.372;2023-08-21T00:47:38;10.03;;;6.97;;
47429;SDS011;33181;49.246;7.372;2023-08-21T00:50:05;9.47;;;6.93;;
47429;SDS011;33181;49.246;7.372;2023-08-21T00:52:33;8.17;;;7.13;;
47429;SDS011;33181;49.246;7.372;2023-08-21T00:55:00;9.43;;;6.90;;
47429;SDS011;33181;49.246;7.372;2023-08-21T00:57:26;8.47;;;6.73;;
47429;SDS011;33181;49.246;7.372;2023-08-21T00:59:52;8.60;;;6.47;;
47429;SDS011;33181;49.246;7.372;2023-08-21T01:02:18;9.37;;;6.50;;
47429;SDS011;33181;49.246;7.372;2023-08-21T01:04:44;12.17;;;6.67;;
47429;SDS011;33181;49.246;7.372;2023-08-21T01:07:10;8.53;;;6.47;;
47429;SDS011;33181;49.246;7.372;2023-08-21T01:09:45;9.03;;;6.60;;
47429;SDS011;33181;49.246;7.372;2023-08-21T01:15:03;13.10;;;6.67;;
47429;SDS011;33181;49.246;7.372;2023-08-21T01:17:35;9.20;;;6.20;;
47429;SDS011;33181;49.246;7.372;2023-08-21T01:20:03;9.30;;;6.50;;
47429;SDS011;33181;49.246;7.372;2023-08-21T01:22:35;9.07;;;6.60;;
47429;SDS011;33181;49.246;7.372;2023-08-21T01:25:06;9.60;;;6.50;;
47429;SDS011;33181;49.246;7.372;2023-08-21T01:27:34;12.40;;;6.57;;
47429;SDS011;33181;49.246;7.372;2023-08-21T01:30:00;10.30;;;6.40;;
47429;SDS011;33181;49.246;7.372;2023-08-21T01:35:33;9.60;;;6.50;;
47429;SDS011;33181;49.246;7.372;2023-08-21T01:38:00;8.20;;;6.57;;
47429;SDS011;33181;49.246;7.372;2023-08-21T01:40:28;7.80;;;6.00;;
47429;SDS011;33181;49.246;7.372;2023-08-21T01:42:54;9.43;;;6.30;;
47429;SDS011;33181;49.246;7.372;2023-08-21T01:45:20;8.87;;;6.67;;
47429;SDS011;33181;49.246;7.372;2023-08-21T01:47:47;14.43;;;6.90;;
47429;SDS011;33181;49.246;7.372;2023-08-21T01:50:12;8.10;;;5.93;;
47429;SDS011;33181;49.246;7.372;2023-08-21T01:52:38;9.07;;;6.07;;
47429;SDS011;33181;49.246;7.372;2023-08-21T01:55:04;9.23;;;6.47;;
47429;SDS011;33181;49.246;7.372;2023-08-21T01:57:33;9.73;;;7.03;;
47429;SDS011;33181;49.246;7.372;2023-08-21T01:59:59;6.87;;;6.17;;
47429;SDS011;33181;49.246;7.372;2023-08-21T02:02:24;9.13;;;6.57;;
47429;SDS011;33181;49.246;7.372;2023-08-21T02:04:50;10.83;;;6.27;;
47429;SDS011;33181;49.246;7.372;2023-08-21T02:07:16;7.67;;;6.23;;
47429;SDS011;33181;49.246;7.372;2023-08-21T02:09:41;8.77;;;6.60;;
47429;SDS011;33181;49.246;7.372;2023-08-21T02:12:07;8.20;;;5.93;;
47429;SDS011;33181;49.246;7.372;2023-08-21T02:14:33;9.80;;;6.37;;
47429;SDS011;33181;49.246;7.372;2023-08-21T02:16:59;9.97;;;6.40;;
47429;SDS011;33181;49.246;7.372;2023-08-21T02:19:25;7.17;;;5.93;;
47429;SDS011;33181;49.246;7.372;2023-08-21T02:21:51;8.77;;;6.13;;
47429;SDS011;33181;49.246;7.372;2023-08-21T02:24:17;9.23;;;5.73;;
47429;SDS011;33181;49.246;7.372;2023-08-21T02:26:42;8.40;;;6.40;;
47429;SDS011;33181;49.246;7.372;2023-08-21T02:29:10;10.83;;;6.70;;
47429;SDS011;33181;49.246;7.372;2023-08-21T02:31:36;8.53;;;6.67;;
47429;SDS011;33181;49.246;7.372;2023-08-21T02:34:02;7.87;;;6.30;;
47429;SDS011;33181;49.246;7.372;2023-08-21T02:36:28;12.33;;;7.10;;
47429;SDS011;33181;49.246;7.372;2023-08-21T02:38:55;8.60;;;6.50;;
47429;SDS011;33181;49.246;7.372;2023-08-21T02:41:21;7.20;;;5.97;;
47429;SDS011;33181;49.246;7.372;2023-08-21T02:43:46;9.40;;;6.00;;
47429;SDS011;33181;49.246;7.372;2023-08-21T02:46:12;8.43;;;6.33;;
47429;SDS011;33181;49.246;7.372;2023-08-21T02:48:38;9.33;;;5.97;;
47429;SDS011;33181;49.246;7.372;2023-08-21T02:51:04;8.77;;;6.13;;
47429;SDS011;33181;49.246;7.372;2023-08-21T02:53:29;11.90;;;7.17;;
47429;SDS011;33181;49.246;7.372;2023-08-21T02:55:55;7.37;;;5.93;;
47429;SDS011;33181;49.246;7.372;2023-08-21T02:58:21;8.40;;;6.33;;
47429;SDS011;33181;49.246;7.372;2023-08-21T03:00:47;8.03;;;5.90;;
47429;SDS011;33181;49.246;7.372;2023-08-21T03:03:12;7.67;;;6.10;;
47429;SDS011;33181;49.246;7.372;2023-08-21T03:05:38;11.60;;;6.30;;
47429;SDS011;33181;49.246;7.372;2023-08-21T03:08:04;6.87;;;6.17;;
47429;SDS011;33181;49.246;7.372;2023-08-21T03:10:30;7.93;;;6.07;;
47429;SDS011;33181;49.246;7.372;2023-08-21T03:12:58;9.60;;;6.10;;
47429;SDS011;33181;49.246;7.372;2023-08-21T03:15:24;6.73;;;6.00;;
47429;SDS011;33181;49.246;7.372;2023-08-21T03:17:50;10.43;;;6.97;;
47429;SDS011;33181;49.246;7.372;2023-08-21T03:20:16;9.77;;;6.47;;
47429;SDS011;33181;49.246;7.372;2023-08-21T03:22:45;8.93;;;5.53;;
47429;SDS011;33181;49.246;7.372;2023-08-21T03:25:11;11.13;;;6.70;;
47429;SDS011;33181;49.246;7.372;2023-08-21T03:27:37;8.20;;;6.37;;
47429;SDS011;33181;49.246;7.372;2023-08-21T03:30:05;9.30;;;6.17;;
47429;SDS011;33181;49.246;7.372;2023-08-21T03:32:32;7.90;;;5.90;;
47429;SDS011;33181;49.246;7.372;2023-08-21T03:34:58;9.43;;;6.57;;
47429;SDS011;33181;49.246;7.372;2023-08-21T03:37:24;7.30;;;6.00;;
47429;SDS011;33181;49.246;7.372;2023-08-21T03:39:50;7.20;;;6.20;;
47429;SDS011;33181;49.246;7.372;2023-08-21T03:42:16;10.83;;;6.40;;
47429;SDS011;33181;49.246;7.372;2023-08-21T03:44:41;14.43;;;6.67;;
47429;SDS011;33181;49.246;7.372;2023-08-21T03:47:07;12.53;;;6.80;;
47429;SDS011;33181;49.246;7.372;2023-08-21T03:49:33;9.57;;;6.30;;
47429;SDS011;33181;49.246;7.372;2023-08-21T03:51:59;6.90;;;6.20;;
47429;SDS011;33181;49.246;7.372;2023-08-21T03:54:25;6.73;;;6.03;;
47429;SDS011;33181;49.246;7.372;2023-08-21T03:56:50;9.73;;;6.43;;
47429;SDS011;33181;49.246;7.372;2023-08-21T03:59:16;7.33;;;6.33;;
47429;SDS011;33181;49.246;7.372;2023-08-21T04:01:42;9.90;;;6.90;;
47429;SDS011;33181;49.246;7.372;2023-08-21T04:04:08;7.33;;;6.50;;
47429;SDS011;33181;49.246;7.372;2023-08-21T04:06:34;9.73;;;6.13;;
47429;SDS011;33181;49.246;7.372;2023-08-21T04:09:00;9.20;;;6.60;;
47429;SDS011;33181;49.246;7.372;2023-08-21T04:11:26;8.43;;;5.97;;
47429;SDS011;33181;49.246;7.372;2023-08-21T04:13:53;7.30;;;6.00;;
47429;SDS011;33181;49.246;7.372;2023-08-21T04:16:19;9.53;;;5.60;;
47429;SDS011;33181;49.246;7.372;2023-08-21T04:18:46;7.40;;;6.10;;
47429;SDS011;33181;49.246;7.372;2023-08-21T04:21:12;10.50;;;6.33;;
47429;SDS011;33181;49.246;7.372;2023-08-21T04:23:37;8.43;;;6.23;;
47429;SDS011;33181;49.246;7.372;2023-08-21T04:26:04;10.40;;;6.43;;
47429;SDS011;33181;49.246;7.372;2023-08-21T04:28:30;8.50;;;6.30;;
47429;SDS011;33181;49.246;7.372;2023-08-21T04:30:56;8.30;;;5.97;;
47429;SDS011;33181;49.246;7.372;2023-08-21T04:33:24;9.07;;;6.53;;
47429;SDS011;33181;49.246;7.372;2023-08-21T04:35:53;9.40;;;6.17;;
47429;SDS011;33181;49.246;7.372;2023-08-21T04:38:19;10.73;;;6.07;;
47429;SDS011;33181;49.246;7.372;2023-08-21T04:40:45;7.10;;;6.40;;
47429;SDS011;33181;49.246;7.372;2023-08-21T04:43:10;8.13;;;6.17;;
47429;SDS011;33181;49.246;7.372;2023-08-21T04:45:36;7.53;;;6.00;;
47429;SDS011;33181;49.246;7.372;2023-08-21T04:48:03;9.00;;;6.17;;
47429;SDS011;33181;49.246;7.372;2023-08-21T04:50:30;7.53;;;5.80;;
47429;SDS011;33181;49.246;7.372;2023-08-21T04:52:56;7.57;;;6.40;;
47429;SDS011;33181;49.246;7.372;2023-08-21T04:55:21;11.37;;;5.73;;
47429;SDS011;33181;49.246;7.372;2023-08-21T04:57:47;8.83;;;5.80;;
47429;SDS011;33181;49.246;7.372;2023-08-21T05:00:13;8.57;;;6.50;;
47429;SDS011;33181;49.246;7.372;2023-08-21T05:02:40;10.13;;;6.17;;
47429;SDS011;33181;49.246;7.372;2023-08-21T05:05:06;9.70;;;6.13;;
47429;SDS011;33181;49.246;7.372;2023-08-21T05:07:34;8.03;;;5.47;;
47429;SDS011;33181;49.246;7.372;2023-08-21T05:10:00;8.30;;;5.90;;
47429;SDS011;33181;49.246;7.372;2023-08-21T05:12:27;10.00;;;6.30;;
47429;SDS011;33181;49.246;7.372;2023-08-21T05:14:52;8.77;;;5.57;;
47429;SDS011;33181;49.246;7.372;2023-08-21T05:17:19;8.50;;;5.27;;
47429;SDS011;33181;49.246;7.372;2023-08-21T05:19:45;9.20;;;5.13;;
47429;SDS011;33181;49.246;7.372;2023-08-21T05:22:10;8.73;;;5.57;;
47429;SDS011;33181;49.246;7.372;2023-08-21T05:24:36;9.07;;;5.00;;
47429;SDS011;33181;49.246;7.372;2023-08-21T05:27:02;12.93;;;5.30;;
47429;SDS011;33181;49.246;7.372;2023-08-21T05:29:29;6.60;;;4.70;;
47429;SDS011;33181;49.246;7.372;2023-08-21T05:31:55;10.07;;;5.40;;
47429;SDS011;33181;49.246;7.372;2023-08-21T05:34:21;7.37;;;5.30;;
47429;SDS011;33181;49.246;7.372;2023-08-21T05:36:47;8.37;;;5.53;;
47429;SDS011;33181;49.246;7.372;2023-08-21T05:39:13;10.07;;;5.40;;
47429;SDS011;33181;49.246;7.372;2023-08-21T05:41:39;6.13;;;4.83;;
47429;SDS011;33181;49.246;7.372;2023-08-21T05:44:05;8.63;;;4.70;;
47429;SDS011;33181;49.246;7.372;2023-08-21T05:46:30;7.00;;;4.90;;
47429;SDS011;33181;49.246;7.372;2023-08-21T05:48:56;10.70;;;5.77;;
47429;SDS011;33181;49.246;7.372;2023-08-21T05:51:22;8.67;;;5.07;;
47429;SDS011;33181;49.246;7.372;2023-08-21T05:53:48;10.73;;;6.10;;
47429;SDS011;33181;49.246;7.372;2023-08-21T05:56:13;9.53;;;5.20;;
47429;SDS011;33181;49.246;7.372;2023-08-21T05:58:39;10.87;;;5.50;;
47429;SDS011;33181;49.246;7.372;2023-08-21T06:01:05;7.57;;;5.47;;
47429;SDS011;33181;49.246;7.372;2023-08-21T06:03:31;9.47;;;5.93;;
47429;SDS011;33181;49.246;7.372;2023-08-21T06:05:57;11.70;;;5.80;;
47429;SDS011;33181;49.246;7.372;2023-08-21T06:08:22;6.80;;;5.57;;
47429;SDS011;33181;49.246;7.372;2023-08-21T06:10:51;12.83;;;5.90;;
47429;SDS011;33181;49.246;7.372;2023-08-21T06:13:17;9.93;;;5.50;;
47429;SDS011;33181;49.246;7.372;2023-08-21T06:15:43;10.10;;;6.10;;
47429;SDS011;33181;49.246;7.372;2023-08-21T06:18:10;8.77;;;5.80;;
47429;SDS011;33181;49.246;7.372;2023-08-21T06:20:36;7.30;;;5.83;;
47429;SDS011;33181;49.246;7.372;2023-08-21T06:23:02;8.13;;;5.77;;
47429;SDS011;33181;49.246;7.372;2023-08-21T06:25:28;8.70;;;5.53;;
47429;SDS011;33181;49.246;7.372;2023-08-21T06:27:55;13.87;;;6.00;;
47429;SDS011;33181;49.246;7.372;2023-08-21T06:30:21;10.30;;;6.00;;
47429;SDS011;33181;49.246;7.372;2023-08-21T06:32:47;12.27;;;6.33;;
47429;SDS011;33181;49.246;7.372;2023-08-21T06:35:13;12.73;;;6.23;;
47429;SDS011;33181;49.246;7.372;2023-08-21T06:37:40;10.60;;;6.40;;
47429;SDS011;33181;49.246;7.372;2023-08-21T06:40:06;10.93;;;6.57;;
47429;SDS011;33181;49.246;7.372;2023-08-21T06:42:32;15.40;;;6.50;;
47429;SDS011;33181;49.246;7.372;2023-08-21T06:44:58;10.13;;;6.50;;
47429;SDS011;33181;49.246;7.372;2023-08-21T06:47:24;12.83;;;6.70;;
47429;SDS011;33181;49.246;7.372;2023-08-21T06:49:50;11.50;;;6.00;;
47429;SDS011;33181;49.246;7.372;2023-08-21T06:52:15;8.90;;;6.13;;
47429;SDS011;33181;49.246;7.372;2023-08-21T06:54:41;11.03;;;6.37;;
47429;SDS011;33181;49.246;7.372;2023-08-21T06:57:07;9.47;;;7.03;;
47429;SDS011;33181;49.246;7.372;2023-08-21T06:59:33;9.70;;;6.40;;
47429;SDS011;33181;49.246;7.372;2023-08-21T07:02:01;7.27;;;6.50;;
47429;SDS011;33181;49.246;7.372;2023-08-21T07:04:30;11.07;;;6.90;;
47429;SDS011;33181;49.246;7.372;2023-08-21T07:06:58;6.97;;;5.80;;
47429;SDS011;33181;49.246;7.372;2023-08-21T07:09:23;14.60;;;6.50;;
47429;SDS011;33181;49.246;7.372;2023-08-21T07:11:49;10.53;;;6.77;;
47429;SDS011;33181;49.246;7.372;2023-08-21T07:14:15;9.67;;;6.80;;
47429;SDS011;33181;49.246;7.372;2023-08-21T07:16:42;7.27;;;6.13;;
47429;SDS011;33181;49.246;7.372;2023-08-21T07:19:08;10.00;;;6.43;;
47429;SDS011;33181;49.246;7.372;2023-08-21T07:21:34;7.70;;;5.40;;
47429;SDS011;33181;49.246;7.372;2023-08-21T07:24:04;9.47;;;6.07;;
47429;SDS011;33181;49.246;7.372;2023-08-21T07:26:30;8.53;;;6.53;;
47429;SDS011;33181;49.246;7.372;2023-08-21T07:28:56;10.40;;;6.13;;
47429;SDS011;33181;49.246;7.372;2023-08-21T07:31:22;10.17;;;6.77;;
47429;SDS011;33181;49.246;7.372;2023-08-21T07:33:48;12.47;;;6.70;;
47429;SDS011;33181;49.246;7.372;2023-08-21T07:36:14;11.60;;;7.10;;
47429;SDS011;33181;49.246;7.372;2023-08-21T07:38:42;9.27;;;7.00;;
47429;SDS011;33181;49.246;7.372;2023-08-21T07:41:12;9.27;;;6.50;;
47429;SDS011;33181;49.246;7.372;2023-08-21T07:43:42;10.83;;;6.87;;
47429;SDS011;33181;49.246;7.372;2023-08-21T07:46:09;9.93;;;6.60;;
47429;SDS011;33181;49.246;7.372;2023-08-21T07:48:40;8.40;;;6.60;;
47429;SDS011;33181;49.246;7.372;2023-08-21T07:51:07;9.07;;;6.87;;
47429;SDS011;33181;49.246;7.372;2023-08-21T07:53:33;9.60;;;7.30;;
47429;SDS011;33181;49.246;7.372;2023-08-21T07:56:00;10.23;;;6.33;;
47429;SDS011;33181;49.246;7.372;2023-08-21T07:58:26;8.50;;;7.23;;
47429;SDS011;33181;49.246;7.372;2023-08-21T08:00:52;8.40;;;7.17;;
47429;SDS011;33181;49.246;7.372;2023-08-21T08:03:18;12.73;;;7.23;;
47429;SDS011;33181;49.246;7.372;2023-08-21T08:05:44;8.57;;;7.37;;
47429;SDS011;33181;49.246;7.372;2023-08-21T08:08:09;11.00;;;7.10;;
47429;SDS011;33181;49.246;7.372;2023-08-21T08:10:39;9.13;;;7.20;;
47429;SDS011;33181;49.246;7.372;2023-08-21T08:13:06;11.40;;;6.20;;
47429;SDS011;33181;49.246;7.372;2023-08-21T08:15:32;8.00;;;6.90;;
47429;SDS011;33181;49.246;7.372;2023-08-21T08:18:00;10.40;;;6.97;;
47429;SDS011;33181;49.246;7.372;2023-08-21T08:20:29;9.60;;;6.03;;
47429;SDS011;33181;49.246;7.372;2023-08-21T08:22:55;9.17;;;6.70;;
47429;SDS011;33181;49.246;7.372;2023-08-21T08:25:21;11.43;;;6.87;;
47429;SDS011;33181;49.246;7.372;2023-08-21T08:27:47;8.63;;;6.60;;
47429;SDS011;33181;49.246;7.372;2023-08-21T08:30:13;7.60;;;6.80;;
47429;SDS011;33181;49.246;7.372;2023-08-21T08:32:42;8.13;;;6.60;;
47429;SDS011;33181;49.246;7.372;2023-08-21T08:35:14;8.93;;;6.45;;
47429;SDS011;33181;49.246;7.372;2023-08-21T08:37:40;8.30;;;6.80;;
47429;SDS011;33181;49.246;7.372;2023-08-21T08:40:07;10.95;;;6.38;;
47429;SDS011;33181;49.246;7.372;2023-08-21T08:42:35;7.25;;;6.55;;
47429;SDS011;33181;49.246;7.372;2023-08-21T08:45:02;8.90;;;6.53;;
47429;SDS011;33181;49.246;7.372;2023-08-21T08:47:31;8.05;;;6.30;;
47429;SDS011;33181;49.246;7.372;2023-08-21T08:49:59;7.18;;;5.72;;
47429;SDS011;33181;49.246;7.372;2023-08-21T08:52:31;6.90;;;6.20;;
47429;SDS011;33181;49.246;7.372;2023-08-21T08:55:01;6.03;;;5.30;;
47429;SDS011;33181;49.246;7.372;2023-08-21T08:57:28;6.43;;;5.53;;
47429;SDS011;33181;49.246;7.372;2023-08-21T08:59:54;6.47;;;5.38;;
47429;SDS011;33181;49.246;7.372;2023-08-21T09:02:19;6.15;;;4.90;;
47429;SDS011;33181;49.246;7.372;2023-08-21T09:04:45;6.18;;;4.68;;
47429;SDS011;33181;49.246;7.372;2023-08-21T09:07:11;6.53;;;4.38;;
47429;SDS011;33181;49.246;7.372;2023-08-21T09:09:41;5.30;;;4.25;;
47429;SDS011;33181;49.246;7.372;2023-08-21T09:12:12;5.00;;;4.45;;
47429;SDS011;33181;49.246;7.372;2023-08-21T09:14:39;5.28;;;4.78;;
47429;SDS011;33181;49.246;7.372;2023-08-21T09:17:07;6.00;;;4.22;;
47429;SDS011;33181;49.246;7.372;2023-08-21T09:19:33;7.40;;;4.90;;
47429;SDS011;33181;49.246;7.372;2023-08-21T09:22:09;5.00;;;4.50;;
47429;SDS011;33181;49.246;7.372;2023-08-21T09:24:59;6.78;;;4.20;;
47429;SDS011;33181;49.246;7.372;2023-08-21T09:27:31;6.72;;;4.28;;
47429;SDS011;33181;49.246;7.372;2023-08-21T09:30:09;6.80;;;4.55;;
47429;SDS011;33181;49.246;7.372;2023-08-21T09:32:55;7.00;;;4.03;;
47429;SDS011;33181;49.246;7.372;2023-08-21T09:35:24;4.13;;;3.45;;
47429;SDS011;33181;49.246;7.372;2023-08-21T09:37:51;4.13;;;3.47;;
47429;SDS011;33181;49.246;7.372;2023-08-21T09:40:21;4.65;;;3.42;;
47429;SDS011;33181;49.246;7.372;2023-08-21T09:42:53;4.65;;;3.38;;
47429;SDS011;33181;49.246;7.372;2023-08-21T09:45:24;4.97;;;3.60;;
47429;SDS011;33181;49.246;7.372;2023-08-21T09:47:52;5.78;;;3.53;;
47429;SDS011;33181;49.246;7.372;2023-08-21T09:50:18;4.72;;;3.75;;
47429;SDS011;33181;49.246;7.372;2023-08-21T09:52:45;5.57;;;4.15;;
47429;SDS011;33181;49.246;7.372;2023-08-21T09:55:12;4.70;;;4.20;;
47429;SDS011;33181;49.246;7.372;2023-08-21T09:57:40;7.78;;;3.45;;
47429;SDS011;33181;49.246;7.372;2023-08-21T10:00:06;5.57;;;3.55;;
47429;SDS011;33181;49.246;7.372;2023-08-21T10:02:42;4.15;;;3.30;;
47429;SDS011;33181;49.246;7.372;2023-08-21T10:05:12;4.30;;;3.55;;
47429;SDS011;33181;49.246;7.372;2023-08-21T10:07:40;5.32;;;3.80;;
47429;SDS011;33181;49.246;7.372;2023-08-21T10:10:09;4.53;;;3.50;;
47429;SDS011;33181;49.246;7.372;2023-08-21T10:12:36;5.10;;;3.30;;
47429;SDS011;33181;49.246;7.372;2023-08-21T10:15:02;4.50;;;3.50;;
47429;SDS011;33181;49.246;7.372;2023-08-21T10:17:28;3.60;;;2.97;;
47429;SDS011;33181;49.246;7.372;2023-08-21T10:20:01;4.10;;;2.90;;
47429;SDS011;33181;49.246;7.372;2023-08-21T10:22:44;4.00;;;3.20;;
47429;SDS011;33181;49.246;7.372;2023-08-21T10:25:15;4.10;;;3.00;;
47429;SDS011;33181;49.246;7.372;2023-08-21T10:27:51;4.88;;;3.38;;
47429;SDS011;33181;49.246;7.372;2023-08-21T10:30:21;4.28;;;3.30;;
47429;SDS011;33181;49.246;7.372;2023-08-21T10:32:49;4.82;;;3.35;;
47429;SDS011;33181;49.246;7.372;2023-08-21T10:35:21;6.88;;;3.85;;
47429;SDS011;33181;49.246;7.372;2023-08-21T10:38:13;4.97;;;3.63;;
47429;SDS011;33181;49.246;7.372;2023-08-21T10:46:11;4.80;;;3.75;;
47429;SDS011;33181;49.246;7.372;2023-08-21T10:48:37;4.60;;;3.50;;
47429;SDS011;33181;49.246;7.372;2023-08-21T10:51:05;7.30;;;3.63;;
47429;SDS011;33181;49.246;7.372;2023-08-21T10:53:34;7.90;;;3.90;;
47429;SDS011;33181;49.246;7.372;2023-08-21T10:56:03;5.20;;;3.30;;
47429;SDS011;33181;49.246;7.372;2023-08-21T11:01:24;4.85;;;4.00;;
47429;SDS011;33181;49.246;7.372;2023-08-21T11:03:49;6.25;;;3.78;;
47429;SDS011;33181;49.246;7.372;2023-08-21T11:06:18;5.30;;;3.80;;
47429;SDS011;33181;49.246;7.372;2023-08-21T11:08:44;4.93;;;3.08;;
47429;SDS011;33181;49.246;7.372;2023-08-21T11:11:10;5.10;;;3.45;;
47429;SDS011;33181;49.246;7.372;2023-08-21T11:13:35;4.78;;;3.72;;
47429;SDS011;33181;49.246;7.372;2023-08-21T11:16:02;5.93;;;3.67;;
47429;SDS011;33181;49.246;7.372;2023-08-21T11:18:32;4.55;;;3.58;;
47429;SDS011;33181;49.246;7.372;2023-08-21T11:21:06;4.20;;;3.30;;
47429;SDS011;33181;49.246;7.372;2023-08-21T11:23:35;6.53;;;3.40;;
47429;SDS011;33181;49.246;7.372;2023-08-21T11:26:03;5.28;;;3.53;;
47429;SDS011;33181;49.246;7.372;2023-08-21T11:28:30;3.45;;;2.97;;
47429;SDS011;33181;49.246;7.372;2023-08-21T11:30:57;6.43;;;3.22;;
47429;SDS011;33181;49.246;7.372;2023-08-21T11:33:25;4.13;;;2.80;;
47429;SDS011;33181;49.246;7.372;2023-08-21T11:35:53;4.50;;;3.10;;
47429;SDS011;33181;49.246;7.372;2023-08-21T11:38:22;5.25;;;3.13;;
47429;SDS011;33181;49.246;7.372;2023-08-21T11:43:40;4.07;;;3.10;;
47429;SDS011;33181;49.246;7.372;2023-08-21T11:46:10;4.03;;;3.13;;
47429;SDS011;33181;49.246;7.372;2023-08-21T11:48:39;4.10;;;3.47;;
47429;SDS011;33181;49.246;7.372;2023-08-21T11:51:07;4.55;;;3.65;;
47429;SDS011;33181;49.246;7.372;2023-08-21T11:56:01;4.68;;;3.00;;
47429;SDS011;33181;49.246;7.372;2023-08-21T11:58:28;4.28;;;2.90;;
47429;SDS011;33181;49.246;7.372;2023-08-21T12:01:01;4.30;;;3.20;;
47429;SDS011;33181;49.246;7.372;2023-08-21T12:03:29;5.95;;;3.33;;
47429;SDS011;33181;49.246;7.372;2023-08-21T12:06:00;4.20;;;3.05;;
47429;SDS011;33181;49.246;7.372;2023-08-21T12:08:38;4.10;;;3.28;;
47429;SDS011;33181;49.246;7.372;2023-08-21T12:11:05;4.82;;;3.63;;
47429;SDS011;33181;49.246;7.372;2023-08-21T12:13:32;5.28;;;3.70;;
47429;SDS011;33181;49.246;7.372;2023-08-21T12:15:58;5.00;;;3.33;;
47429;SDS011;33181;49.246;7.372;2023-08-21T12:18:24;4.65;;;3.22;;
47429;SDS011;33181;49.246;7.372;2023-08-21T12:20:50;5.07;;;3.10;;
47429;SDS011;33181;49.246;7.372;2023-08-21T12:23:16;5.18;;;3.13;;
47429;SDS011;33181;49.246;7.372;2023-08-21T12:25:42;4.57;;;3.28;;
47429;SDS011;33181;49.246;7.372;2023-08-21T12:28:08;4.03;;;3.00;;
47429;SDS011;33181;49.246;7.372;2023-08-21T12:30:34;4.93;;;3.30;;
47429;SDS011;33181;49.246;7.372;2023-08-21T12:33:00;4.05;;;3.30;;
47429;SDS011;33181;49.246;7.372;2023-08-21T12:35:26;4.55;;;3.38;;
47429;SDS011;33181;49.246;7.372;2023-08-21T12:37:56;7.30;;;3.53;;
47429;SDS011;33181;49.246;7.372;2023-08-21T12:40:30;6.13;;;3.50;;
47429;SDS011;33181;49.246;7.372;2023-08-21T12:42:57;8.13;;;3.78;;
47429;SDS011;33181;49.246;7.372;2023-08-21T12:45:22;4.95;;;3.20;;
47429;SDS011;33181;49.246;7.372;2023-08-21T12:47:48;4.28;;;3.00;;
47429;SDS011;33181;49.246;7.372;2023-08-21T12:50:14;5.47;;;3.30;;
47429;SDS011;33181;49.246;7.372;2023-08-21T12:52:40;6.13;;;3.30;;
47429;SDS011;33181;49.246;7.372;2023-08-21T12:55:06;3.97;;;3.30;;
47429;SDS011;33181;49.246;7.372;2023-08-21T12:57:32;4.68;;;3.53;;
47429;SDS011;33181;49.246;7.372;2023-08-21T12:59:58;3.88;;;3.03;;
47429;SDS011;33181;49.246;7.372;2023-08-21T13:02:24;3.90;;;3.22;;
47429;SDS011;33181;49.246;7.372;2023-08-21T13:04:52;4.93;;;3.50;;
47429;SDS011;33181;49.246;7.372;2023-08-21T13:07:18;3.92;;;3.30;;
47429;SDS011;33181;49.246;7.372;2023-08-21T13:09:43;4.97;;;3.30;;
47429;SDS011;33181;49.246;7.372;2023-08-21T13:12:09;6.93;;;3.30;;
47429;SDS011;33181;49.246;7.372;2023-08-21T13:14:35;6.95;;;3.35;;
47429;SDS011;33181;49.246;7.372;2023-08-21T13:17:00;4.53;;;3.20;;
47429;SDS011;33181;49.246;7.372;2023-08-21T13:19:26;5.10;;;3.22;;
47429;SDS011;33181;49.246;7.372;2023-08-21T13:21:52;4.35;;;3.33;;
47429;SDS011;33181;49.246;7.372;2023-08-21T13:24:19;4.95;;;3.47;;
47429;SDS011;33181;49.246;7.372;2023-08-21T13:26:46;3.90;;;3.50;;
47429;SDS011;33181;49.246;7.372;2023-08-21T13:29:12;4.03;;;3.28;;
47429;SDS011;33181;49.246;7.372;2023-08-21T13:31:38;6.13;;;3.40;;
47429;SDS011;33181;49.246;7.372;2023-08-21T13:34:04;6.57;;;3.38;;
47429;SDS011;33181;49.246;7.372;2023-08-21T13:36:30;6.38;;;3.47;;
47429;SDS011;33181;49.246;7.372;2023-08-21T13:38:56;3.33;;;2.95;;
47429;SDS011;33181;49.246;7.372;2023-08-21T13:41:22;4.25;;;3.33;;
47429;SDS011;33181;49.246;7.372;2023-08-21T13:43:47;3.55;;;3.10;;
47429;SDS011;33181;49.246;7.372;2023-08-21T13:46:13;4.88;;;3.78;;
47429;SDS011;33181;49.246;7.372;2023-08-21T13:48:40;5.53;;;3.20;;
47429;SDS011;33181;49.246;7.372;2023-08-21T13:51:06;5.43;;;3.38;;
47429;SDS011;33181;49.246;7.372;2023-08-21T13:53:31;6.43;;;3.50;;
47429;SDS011;33181;49.246;7.372;2023-08-21T13:55:57;4.75;;;3.30;;
47429;SDS011;33181;49.246;7.372;2023-08-21T13:58:23;4.63;;;3.45;;
47429;SDS011;33181;49.246;7.372;2023-08-21T14:00:49;5.30;;;3.20;;
47429;SDS011;33181;49.246;7.372;2023-08-21T14:03:14;4.30;;;3.42;;
47429;SDS011;33181;49.246;7.372;2023-08-21T14:05:40;7.00;;;3.63;;
47429;SDS011;33181;49.246;7.372;2023-08-21T14:08:06;5.13;;;3.90;;
47429;SDS011;33181;49.246;7.372;2023-08-21T14:10:33;5.05;;;3.70;;
47429;SDS011;33181;49.246;7.372;2023-08-21T14:12:58;5.35;;;3.33;;
47429;SDS011;33181;49.246;7.372;2023-08-21T14:15:24;4.50;;;3.97;;
47429;SDS011;33181;49.246;7.372;2023-08-21T14:17:50;7.80;;;3.70;;
47429;SDS011;33181;49.246;7.372;2023-08-21T14:20:16;5.07;;;3.88;;
47429;SDS011;33181;49.246;7.372;2023-08-21T14:22:42;5.30;;;3.45;;
47429;SDS011;33181;49.246;7.372;2023-08-21T14:25:08;7.28;;;3.75;;
47429;SDS011;33181;49.246;7.372;2023-08-21T14:27:34;5.72;;;3.78;;
47429;SDS011;33181;49.246;7.372;2023-08-21T14:30:00;5.28;;;3.58;;
47429;SDS011;33181;49.246;7.372;2023-08-21T14:32:25;5.70;;;3.72;;
47429;SDS011;33181;49.246;7.372;2023-08-21T14:34:52;3.90;;;3.50;;
47429;SDS011;33181;49.246;7.372;2023-08-21T14:37:18;7.82;;;3.50;;
47429;SDS011;33181;49.246;7.372;2023-08-21T14:39:46;7.93;;;3.93;;
47429;SDS011;33181;49.246;7.372;2023-08-21T14:42:12;8.90;;;4.13;;
47429;SDS011;33181;49.246;7.372;2023-08-21T14:44:39;4.90;;;3.80;;
47429;SDS011;33181;49.246;7.372;2023-08-21T14:47:04;5.53;;;3.90;;
47429;SDS011;33181;49.246;7.372;2023-08-21T14:49:31;5.50;;;3.90;;
47429;SDS011;33181;49.246;7.372;2023-08-21T14:51:59;7.30;;;4.00;;
47429;SDS011;33181;49.246;7.372;2023-08-21T14:54:25;7.50;;;3.50;;
47429;SDS011;33181;49.246;7.372;2023-08-21T14:56:51;5.77;;;4.07;;
47429;SDS011;33181;49.246;7.372;2023-08-21T14:59:17;7.57;;;3.90;;
47429;SDS011;33181;49.246;7.372;2023-08-21T15:01:42;6.63;;;4.07;;
47429;SDS011;33181;49.246;7.372;2023-08-21T15:04:08;6.63;;;3.90;;